createdAt,value
2022-12-17T00:02:12.134Z,48.93
2022-12-17T00:04:32.890Z,49.58
2022-12-17T00:06:56.582Z,49.47
2022-12-17T00:09:20.021Z,49.03
2022-12-17T00:11:40.540Z,49.13
2022-12-17T00:14:04.043Z,48.77
2022-12-17T00:16:25.186Z,48.94
2022-12-17T00:18:45.180Z,49.27
2022-12-17T00:21:17.196Z,49.44
2022-12-17T00:23:39.728Z,49.23
2022-12-17T00:26:00.180Z,48.78
2022-12-17T00:28:20.487Z,48.66
2022-12-17T00:30:40.826Z,49.25
2022-12-17T00:33:01.241Z,49.08
2022-12-17T00:35:21.937Z,49.08
2022-12-17T00:37:45.282Z,48.97
2022-12-17T00:40:05.457Z,48.88
2022-12-17T00:42:25.690Z,48.77
2022-12-17T00:44:46.104Z,48.91
2022-12-17T00:47:07.910Z,48.48
2022-12-17T00:49:27.935Z,49.00
2022-12-17T00:51:49.498Z,49.02
2022-12-17T00:54:09.851Z,48.75
2022-12-17T00:56:30.254Z,48.78
2022-12-17T00:58:50.788Z,48.86
2022-12-17T01:01:20.467Z,48.61
2022-12-17T01:03:40.850Z,48.59
2022-12-17T01:06:01.297Z,48.72
2022-12-17T01:08:26.745Z,48.26
2022-12-17T01:10:47.112Z,48.61
2022-12-17T01:13:07.499Z,48.72
2022-12-17T01:15:28.115Z,48.31
2022-12-17T01:17:48.490Z,48.49
2022-12-17T01:20:08.930Z,48.43
2022-12-17T01:22:29.169Z,48.59
2022-12-17T01:24:52.419Z,48.39
2022-12-17T01:27:12.847Z,48.41
2022-12-17T01:29:33.149Z,48.49
2022-12-17T01:31:53.329Z,48.44
2022-12-17T01:34:13.578Z,48.49
2022-12-17T01:36:33.776Z,48.65
2022-12-17T01:38:54.078Z,48.44
2022-12-17T01:41:16.503Z,48.22
2022-12-17T01:43:54.244Z,48.20
2022-12-17T01:46:14.351Z,48.41
2022-12-17T01:48:36.493Z,48.29
2022-12-17T01:51:00.813Z,48.42
2022-12-17T01:53:24.093Z,48.40
2022-12-17T01:55:44.156Z,48.29
2022-12-17T01:58:05.345Z,48.26
2022-12-17T02:00:28.546Z,48.07
2022-12-17T02:02:52.601Z,48.38
2022-12-17T02:05:15.804Z,48.42
2022-12-17T02:07:52.977Z,48.15
2022-12-17T02:10:32.377Z,47.55
2022-12-17T02:13:01.032Z,47.91
2022-12-17T02:15:36.184Z,47.52
2022-12-17T02:18:01.979Z,48.07
2022-12-17T02:20:38.224Z,47.96
2022-12-17T02:23:26.975Z,47.72
2022-12-17T02:25:58.571Z,47.81
2022-12-17T02:28:20.244Z,47.99
2022-12-17T02:30:40.614Z,47.77
2022-12-17T02:33:08.711Z,48.26
2022-12-17T02:35:41.259Z,47.70
2022-12-17T02:38:26.213Z,47.84
2022-12-17T02:40:46.954Z,47.80
2022-12-17T02:43:07.981Z,48.04
2022-12-17T02:45:34.666Z,48.15
2022-12-17T02:47:58.252Z,48.25
2022-12-17T02:50:18.407Z,48.08
2022-12-17T02:52:40.253Z,48.06
2022-12-17T02:55:00.322Z,48.16
2022-12-17T02:57:21.731Z,48.33
2022-12-17T02:59:43.190Z,48.02
2022-12-17T03:02:08.940Z,47.89
2022-12-17T03:04:29.458Z,48.30
2022-12-17T03:06:49.559Z,47.91
2022-12-17T03:09:09.844Z,47.84
2022-12-17T03:11:30.260Z,48.05
2022-12-17T03:13:50.692Z,47.94
2022-12-17T03:16:10.748Z,48.07
2022-12-17T03:18:34.204Z,48.19
2022-12-17T03:20:57.230Z,47.97
2022-12-17T03:23:28.323Z,48.46
2022-12-17T03:25:49.422Z,48.17
2022-12-17T03:28:09.619Z,48.44
2022-12-17T03:30:34.556Z,47.87
2022-12-17T03:32:57.582Z,48.31
2022-12-17T03:35:17.927Z,48.04
2022-12-17T03:37:38.486Z,47.91
2022-12-17T03:39:58.749Z,48.20
2022-12-17T03:42:19.965Z,48.24
2022-12-17T03:44:40.494Z,47.70
2022-12-17T03:47:00.782Z,47.96
2022-12-17T03:49:21.343Z,47.81
2022-12-17T03:51:42.726Z,48.26
2022-12-17T03:54:04.581Z,48.25
2022-12-17T03:56:24.871Z,47.84
2022-12-17T03:58:45.228Z,47.97
2022-12-17T04:01:12.353Z,47.70
2022-12-17T04:03:33.377Z,48.09
2022-12-17T04:05:54.196Z,47.90
2022-12-17T04:08:14.207Z,48.08
2022-12-17T04:10:34.758Z,47.94
2022-12-17T04:12:54.759Z,47.92
2022-12-17T04:15:15.082Z,47.95
2022-12-17T04:17:35.338Z,47.93
2022-12-17T04:19:57.607Z,47.88
2022-12-17T04:22:19.126Z,48.04
2022-12-17T04:24:39.095Z,47.60
2022-12-17T04:26:59.555Z,47.78
2022-12-17T04:29:19.950Z,47.76
2022-12-17T04:31:40.247Z,47.94
2022-12-17T04:34:00.392Z,47.66
2022-12-17T04:36:23.774Z,47.81
2022-12-17T04:38:51.951Z,47.87
2022-12-17T04:41:19.640Z,47.77
2022-12-17T04:43:41.748Z,48.08
2022-12-17T04:46:02.195Z,47.89
2022-12-17T04:48:24.928Z,47.85
2022-12-17T04:50:45.229Z,47.94
2022-12-17T04:53:08.347Z,48.10
2022-12-17T04:55:28.510Z,48.06
2022-12-17T04:57:48.707Z,47.59
2022-12-17T05:00:11.924Z,48.17
2022-12-17T05:02:32.036Z,47.76
2022-12-17T05:04:52.283Z,47.89
2022-12-17T05:07:12.716Z,47.80
2022-12-17T05:09:33.234Z,47.76
2022-12-17T05:11:53.518Z,48.04
2022-12-17T05:14:13.790Z,48.19
2022-12-17T05:16:34.145Z,47.86
2022-12-17T05:18:54.399Z,47.90
2022-12-17T05:21:16.931Z,47.83
2022-12-17T05:23:37.562Z,47.83
2022-12-17T05:25:58.165Z,48.00
2022-12-17T05:28:18.190Z,48.16
2022-12-17T05:30:38.603Z,47.88
2022-12-17T05:32:59.119Z,47.97
2022-12-17T05:35:19.381Z,48.08
2022-12-17T05:37:44.470Z,47.78
2022-12-17T05:40:09.234Z,47.86
2022-12-17T05:42:32.324Z,47.75
2022-12-17T05:44:52.525Z,48.02
2022-12-17T05:47:12.748Z,47.67
2022-12-17T05:49:32.999Z,47.81
2022-12-17T05:51:53.315Z,47.52
2022-12-17T05:54:13.577Z,48.16
2022-12-17T05:56:33.738Z,47.62
2022-12-17T05:58:57.343Z,47.66
2022-12-17T06:01:20.006Z,47.65
2022-12-17T06:03:40.913Z,47.80
2022-12-17T06:06:01.688Z,47.91
2022-12-17T06:08:24.063Z,47.89
2022-12-17T06:10:45.112Z,47.87
2022-12-17T06:13:16.898Z,47.64
2022-12-17T06:15:37.323Z,47.93
2022-12-17T06:17:57.253Z,48.20
2022-12-17T06:20:17.650Z,48.06
2022-12-17T06:22:37.774Z,47.94
2022-12-17T06:24:57.785Z,47.84
2022-12-17T06:27:18.256Z,47.74
2022-12-17T06:29:43.058Z,47.83
2022-12-17T06:32:05.920Z,47.74
2022-12-17T06:34:26.195Z,47.63
2022-12-17T06:36:46.494Z,47.49
2022-12-17T06:39:06.796Z,47.67
2022-12-17T06:41:27.483Z,47.81
2022-12-17T06:43:47.767Z,47.75
2022-12-17T06:46:10.729Z,47.70
2022-12-17T06:48:30.920Z,48.04
2022-12-17T06:50:50.840Z,48.11
2022-12-17T06:53:18.664Z,47.63
2022-12-17T06:55:38.928Z,47.92
2022-12-17T06:57:59.285Z,48.08
2022-12-17T07:00:23.213Z,48.24
2022-12-17T07:02:43.734Z,48.03
2022-12-17T07:05:13.117Z,48.08
2022-12-17T07:07:36.637Z,47.58
2022-12-17T07:09:57.165Z,47.83
2022-12-17T07:12:17.714Z,47.52
2022-12-17T07:14:37.955Z,47.95
2022-12-17T07:16:58.009Z,47.74
2022-12-17T07:19:21.395Z,47.79
2022-12-17T07:21:44.100Z,47.77
2022-12-17T07:24:04.299Z,47.81
2022-12-17T07:26:24.630Z,47.70
2022-12-17T07:28:44.881Z,47.64
2022-12-17T07:31:05.269Z,47.72
2022-12-17T07:33:26.419Z,47.60
2022-12-17T07:35:46.904Z,47.78
2022-12-17T07:38:07.256Z,48.19
2022-12-17T07:40:30.764Z,47.83
2022-12-17T07:42:50.907Z,47.71
2022-12-17T07:45:10.730Z,47.82
2022-12-17T07:47:31.346Z,47.94
2022-12-17T07:49:55.184Z,47.80
2022-12-17T07:52:15.805Z,47.89
2022-12-17T07:54:36.038Z,48.12
2022-12-17T07:56:56.349Z,48.09
2022-12-17T07:59:16.990Z,48.00
2022-12-17T08:01:37.192Z,47.85
2022-12-17T08:04:03.333Z,47.97
2022-12-17T08:06:23.842Z,48.13
2022-12-17T08:08:44.129Z,47.88
2022-12-17T08:11:14.557Z,48.03
2022-12-17T08:13:35.578Z,47.90
2022-12-17T08:15:59.513Z,48.03
2022-12-17T08:18:26.670Z,48.30
2022-12-17T08:20:47.242Z,48.37
2022-12-17T08:23:07.577Z,48.06
2022-12-17T08:25:28.585Z,48.49
2022-12-17T08:27:49.287Z,48.33
2022-12-17T08:30:09.643Z,48.51
2022-12-17T08:32:30.581Z,48.33
2022-12-17T08:34:53.414Z,48.70
2022-12-17T08:37:13.619Z,48.51
2022-12-17T08:39:34.077Z,48.75
2022-12-17T08:41:56.605Z,48.73
2022-12-17T08:44:18.814Z,49.03
2022-12-17T08:46:40.563Z,48.87
2022-12-17T08:49:00.861Z,49.08
2022-12-17T08:51:20.984Z,49.00
2022-12-17T08:53:41.822Z,48.89
2022-12-17T08:56:02.168Z,48.74
2022-12-17T08:58:22.732Z,48.87
2022-12-17T09:00:45.168Z,48.80
2022-12-17T09:03:06.661Z,49.13
2022-12-17T09:05:27.911Z,48.79
2022-12-17T09:07:48.383Z,48.85
2022-12-17T09:10:08.769Z,49.24
2022-12-17T09:12:29.488Z,49.11
2022-12-17T09:14:49.927Z,49.02
2022-12-17T09:17:10.520Z,49.22
2022-12-17T09:19:31.184Z,49.23
2022-12-17T09:22:03.738Z,49.31
2022-12-17T09:24:24.236Z,49.32
2022-12-17T09:26:44.133Z,49.31
2022-12-17T09:29:04.597Z,49.07
2022-12-17T09:31:24.875Z,49.42
2022-12-17T09:33:45.124Z,49.65
2022-12-17T09:36:07.944Z,49.35
2022-12-17T09:38:31.471Z,49.49
2022-12-17T09:40:51.722Z,49.68
2022-12-17T09:43:21.028Z,49.67
2022-12-17T09:45:49.206Z,49.81
2022-12-17T09:48:32.626Z,49.53
2022-12-17T09:50:53.215Z,49.42
2022-12-17T09:53:13.344Z,49.50
2022-12-17T09:55:44.318Z,49.83
2022-12-17T09:58:07.555Z,50.08
2022-12-17T10:00:41.352Z,50.20
2022-12-17T10:03:02.361Z,49.98
2022-12-17T10:05:26.101Z,50.33
2022-12-17T10:07:56.084Z,49.89
2022-12-17T10:10:26.258Z,50.08
2022-12-17T10:12:46.547Z,50.60
2022-12-17T10:15:06.786Z,50.33
2022-12-17T10:17:40.967Z,50.15
2022-12-17T10:20:09.433Z,50.48
2022-12-17T10:22:36.846Z,50.39
2022-12-17T10:25:03.780Z,50.30
2022-12-17T10:27:29.050Z,50.52
2022-12-17T10:29:50.558Z,50.44
2022-12-17T10:32:17.625Z,50.48
2022-12-17T10:34:41.804Z,50.42
2022-12-17T10:37:08.245Z,50.63
2022-12-17T10:39:41.949Z,50.57
2022-12-17T10:42:02.450Z,50.50
2022-12-17T10:44:48.204Z,50.91
2022-12-17T10:47:15.406Z,50.60
2022-12-17T10:49:43.646Z,50.76
2022-12-17T10:52:11.129Z,50.83
2022-12-17T10:54:50.025Z,50.81
2022-12-17T10:57:16.353Z,50.93
2022-12-17T10:59:57.633Z,50.90
2022-12-17T11:02:18.424Z,50.59
2022-12-17T11:04:46.358Z,50.88
2022-12-17T11:07:10.566Z,50.80
2022-12-17T11:09:55.274Z,50.84
2022-12-17T11:12:15.654Z,51.10
2022-12-17T11:14:36.127Z,51.28
2022-12-17T11:17:08.134Z,51.05
2022-12-17T11:19:28.416Z,51.41
2022-12-17T11:22:12.752Z,51.12
2022-12-17T11:24:46.400Z,51.12
2022-12-17T11:27:10.885Z,51.19
2022-12-17T11:29:32.966Z,51.05
2022-12-17T11:32:14.566Z,51.05
2022-12-17T11:34:50.114Z,50.86
2022-12-17T11:37:22.393Z,50.91
2022-12-17T11:39:55.407Z,51.24
2022-12-17T11:42:46.322Z,51.21
2022-12-17T11:45:25.351Z,51.42
2022-12-17T11:48:07.198Z,50.90
2022-12-17T11:50:48.086Z,51.48
2022-12-17T11:53:28.237Z,51.08
2022-12-17T11:56:19.909Z,51.54
2022-12-17T11:58:52.174Z,51.70
2022-12-17T12:01:30.740Z,51.37
2022-12-17T12:04:17.289Z,51.41
2022-12-17T12:07:07.037Z,50.91
2022-12-17T12:09:35.976Z,51.29
2022-12-17T12:12:11.717Z,50.94
2022-12-17T12:14:46.294Z,51.73
2022-12-17T12:17:25.526Z,51.50
2022-12-17T12:20:29.003Z,51.26
2022-12-17T12:23:20.183Z,50.92
2022-12-17T12:25:43.609Z,51.21
2022-12-17T12:28:25.136Z,50.87
2022-12-17T12:30:59.570Z,51.64
2022-12-17T12:33:44.954Z,51.61
2022-12-17T12:36:05.943Z,51.16
2022-12-17T12:38:39.484Z,51.05
2022-12-17T12:41:13.640Z,51.60
2022-12-17T12:43:45.502Z,50.71
2022-12-17T12:46:27.898Z,51.61
2022-12-17T12:49:03.650Z,51.20
2022-12-17T12:51:45.879Z,50.75
2022-12-17T12:54:20.538Z,50.67
2022-12-17T12:56:52.787Z,51.20
2022-12-17T12:59:14.833Z,51.39
2022-12-17T13:01:35.888Z,50.67
2022-12-17T13:04:02.311Z,50.83
2022-12-17T13:06:04.535Z,51.55
2022-12-17T13:08:23.104Z,51.36
2022-12-17T13:10:30.140Z,51.44
2022-12-17T13:12:45.383Z,51.02
2022-12-17T13:15:09.774Z,51.43
2022-12-17T13:17:17.306Z,51.31
2022-12-17T13:19:35.690Z,51.09
2022-12-17T13:21:37.489Z,50.80
2022-12-17T13:23:43.358Z,51.18
2022-12-17T13:25:45.019Z,51.02
2022-12-17T13:27:47.144Z,50.96
2022-12-17T13:29:54.488Z,51.21
2022-12-17T13:32:03.301Z,50.81
2022-12-17T13:34:25.923Z,50.50
2022-12-17T13:36:34.780Z,50.75
2022-12-17T13:38:57.013Z,50.88
2022-12-17T13:41:10.516Z,51.19
2022-12-17T13:43:18.987Z,51.36
2022-12-17T13:45:29.074Z,51.13
2022-12-17T13:47:35.567Z,51.31
2022-12-17T13:49:40.424Z,50.91
2022-12-17T13:51:45.089Z,50.84
2022-12-17T13:53:58.342Z,50.75
2022-12-17T13:56:03.491Z,50.99
2022-12-17T13:58:08.190Z,51.07
2022-12-17T14:00:23.772Z,51.11
2022-12-17T14:02:28.959Z,50.98
2022-12-17T14:04:33.958Z,50.92
2022-12-17T14:06:38.291Z,51.06
2022-12-17T14:08:43.223Z,50.62
2022-12-17T14:10:52.483Z,50.60
2022-12-17T14:13:08.062Z,50.51
2022-12-17T14:15:24.393Z,50.57
2022-12-17T14:17:37.639Z,50.64
2022-12-17T14:19:39.942Z,50.57
2022-12-17T14:21:45.761Z,50.79
2022-12-17T14:23:50.573Z,50.90
2022-12-17T14:25:53.162Z,50.77
2022-12-17T14:28:00.964Z,50.53
2022-12-17T14:30:20.354Z,50.65
2022-12-17T14:32:32.254Z,50.53
2022-12-17T14:34:43.764Z,50.49
2022-12-17T14:36:57.086Z,50.33
2022-12-17T14:39:01.492Z,50.55
2022-12-17T14:41:29.843Z,51.18
2022-12-17T14:43:34.371Z,50.78
2022-12-17T14:45:56.109Z,50.54
2022-12-17T14:48:00.198Z,50.55
2022-12-17T14:50:14.029Z,50.26
2022-12-17T14:52:31.332Z,50.28
2022-12-17T14:54:33.383Z,50.26
2022-12-17T14:56:34.896Z,50.59
2022-12-17T14:58:45.617Z,50.38
2022-12-17T15:00:59.767Z,50.47
2022-12-17T15:03:01.610Z,50.00
2022-12-17T15:05:03.831Z,50.58
2022-12-17T15:07:10.979Z,49.77
2022-12-17T15:09:16.572Z,50.44
2022-12-17T15:11:20.934Z,50.19
2022-12-17T15:13:22.669Z,49.43
2022-12-17T15:15:24.374Z,49.64
2022-12-17T15:17:28.944Z,49.88
2022-12-17T15:19:31.042Z,49.74
2022-12-17T15:21:32.811Z,49.48
2022-12-17T15:23:41.087Z,49.27
2022-12-17T15:25:46.664Z,49.85
2022-12-17T15:27:48.672Z,49.84
2022-12-17T15:29:50.393Z,49.08
2022-12-17T15:31:51.952Z,49.44
2022-12-17T15:33:56.558Z,49.18
2022-12-17T15:35:59.280Z,49.47
2022-12-17T15:38:01.101Z,49.19
2022-12-17T15:40:06.207Z,49.02
2022-12-17T15:42:29.034Z,49.55
2022-12-17T15:44:30.651Z,49.07
2022-12-17T15:46:35.105Z,49.04
2022-12-17T15:48:37.038Z,49.56
2022-12-17T15:50:39.688Z,49.45
2022-12-17T15:52:41.476Z,49.31
2022-12-17T15:54:43.143Z,49.36
2022-12-17T15:56:52.604Z,48.41
2022-12-17T15:58:58.839Z,49.33
2022-12-17T16:01:00.759Z,48.55
2022-12-17T16:03:02.444Z,48.87
2022-12-17T16:05:04.617Z,49.33
2022-12-17T16:07:06.128Z,49.08
2022-12-17T16:09:07.992Z,48.89
2022-12-17T16:11:11.856Z,48.71
2022-12-17T16:13:13.523Z,49.07
2022-12-17T16:15:15.962Z,48.57
2022-12-17T16:17:17.641Z,48.94
2022-12-17T16:19:22.442Z,48.75
2022-12-17T16:21:24.120Z,48.84
2022-12-17T16:23:25.660Z,48.90
2022-12-17T16:25:27.642Z,48.69
2022-12-17T16:27:29.446Z,48.48
2022-12-17T16:29:31.105Z,48.96
2022-12-17T16:31:33.463Z,48.46
2022-12-17T16:33:37.872Z,48.48
2022-12-17T16:35:39.575Z,48.83
2022-12-17T16:37:41.215Z,48.68
2022-12-17T16:39:58.266Z,48.50
2022-12-17T16:42:02.023Z,48.43
2022-12-17T16:44:04.911Z,48.33
2022-12-17T16:46:24.765Z,47.95
2022-12-17T16:48:26.442Z,48.58
2022-12-17T16:50:33.477Z,48.30
2022-12-17T16:52:35.365Z,48.61
2022-12-17T16:54:37.098Z,48.70
2022-12-17T16:56:40.862Z,48.58
2022-12-17T16:58:42.908Z,48.91
2022-12-17T17:00:46.471Z,48.58
2022-12-17T17:02:53.083Z,48.84
2022-12-17T17:04:55.161Z,48.40
2022-12-17T17:06:57.749Z,48.38
2022-12-17T17:08:59.418Z,48.36
2022-12-17T17:11:11.023Z,48.46
2022-12-17T17:13:13.065Z,48.83
2022-12-17T17:15:14.754Z,48.58
2022-12-17T17:17:16.350Z,48.27
2022-12-17T17:19:19.762Z,48.81
2022-12-17T17:21:31.130Z,48.43
2022-12-17T17:23:32.727Z,48.29
2022-12-17T17:25:57.416Z,48.43
2022-12-17T17:27:57.349Z,48.43
2022-12-17T17:30:03.272Z,48.57
2022-12-17T17:32:13.928Z,48.09
2022-12-17T17:34:15.980Z,48.14
2022-12-17T17:36:20.918Z,48.16
2022-12-17T17:38:22.527Z,48.49
2022-12-17T17:40:24.149Z,48.31
2022-12-17T17:42:25.790Z,48.26
2022-12-17T17:44:27.426Z,48.39
2022-12-17T17:46:30.107Z,48.38
2022-12-17T17:48:35.803Z,48.04
2022-12-17T17:50:37.678Z,48.06
2022-12-17T17:52:39.900Z,48.64
2022-12-17T17:54:41.983Z,48.39
2022-12-17T17:56:46.832Z,48.09
2022-12-17T17:58:51.329Z,48.34
2022-12-17T18:00:53.000Z,48.06
2022-12-17T18:02:54.972Z,48.20
2022-12-17T18:04:58.541Z,48.32
2022-12-17T18:09:30.235Z,48.21
2022-12-17T18:11:49.373Z,48.11
2022-12-17T18:13:57.221Z,48.14
2022-12-17T18:16:02.175Z,48.00
2022-12-17T18:18:05.531Z,47.92
2022-12-17T18:20:09.985Z,47.96
2022-12-17T18:22:11.613Z,48.18
2022-12-17T18:24:18.873Z,48.26
2022-12-17T18:26:23.100Z,48.17
2022-12-17T18:28:25.067Z,47.87
2022-12-17T18:30:26.707Z,48.29
2022-12-17T18:32:28.330Z,48.12
2022-12-17T18:34:29.869Z,48.09
2022-12-17T18:36:38.484Z,47.69
2022-12-17T18:38:40.550Z,47.90
2022-12-17T18:40:42.319Z,47.79
2022-12-17T18:43:03.637Z,47.82
2022-12-17T18:45:05.831Z,48.28
2022-12-17T18:47:08.739Z,47.76
2022-12-17T18:49:12.763Z,47.86
2022-12-17T18:51:14.500Z,48.16
2022-12-17T18:53:16.509Z,47.93
2022-12-17T18:55:18.513Z,47.84
2022-12-17T18:57:22.022Z,48.18
2022-12-17T18:59:29.004Z,48.23
2022-12-17T19:01:35.031Z,47.75
2022-12-17T19:03:36.639Z,47.94
2022-12-17T19:05:45.726Z,47.93
2022-12-17T19:07:48.206Z,47.92
2022-12-17T19:09:50.947Z,47.71
2022-12-17T19:11:53.770Z,48.03
2022-12-17T19:13:56.937Z,47.83
2022-12-17T19:16:06.519Z,48.09
2022-12-17T19:18:08.385Z,47.82
2022-12-17T19:20:10.315Z,47.99
2022-12-17T19:22:14.641Z,47.84
2022-12-17T19:24:17.620Z,47.63
2022-12-17T19:26:20.927Z,48.03
2022-12-17T19:28:22.962Z,47.58
2022-12-17T19:30:24.487Z,47.80
2022-12-17T19:32:25.987Z,47.74
2022-12-17T19:34:28.336Z,47.88
2022-12-17T19:36:31.747Z,47.51
2022-12-17T19:38:36.022Z,47.67
2022-12-17T19:40:38.027Z,47.94
2022-12-17T19:42:39.889Z,48.13
2022-12-17T19:44:51.476Z,47.75
2022-12-17T19:46:53.776Z,48.35
2022-12-17T19:48:57.371Z,47.79
2022-12-17T19:50:59.949Z,48.13
2022-12-17T19:53:01.701Z,48.44
2022-12-17T19:55:04.733Z,48.23
2022-12-17T19:57:06.313Z,48.22
2022-12-17T19:59:10.802Z,48.46
2022-12-17T20:01:17.940Z,48.44
2022-12-17T20:03:22.405Z,48.36
2022-12-17T20:05:24.138Z,48.11
2022-12-17T20:07:25.872Z,47.87
2022-12-17T20:09:27.718Z,47.78
2022-12-17T20:11:35.627Z,48.18
2022-12-17T20:13:37.466Z,47.92
2022-12-17T20:15:39.045Z,47.51
2022-12-17T20:17:40.670Z,48.14
2022-12-17T20:19:43.628Z,47.69
2022-12-17T20:21:46.178Z,47.65
2022-12-17T20:23:50.480Z,47.46
2022-12-17T20:26:05.656Z,47.47
2022-12-17T20:28:09.757Z,47.68
2022-12-17T20:30:14.934Z,47.40
2022-12-17T20:32:19.599Z,47.25
2022-12-17T20:34:21.716Z,47.67
2022-12-17T20:36:26.052Z,47.75
2022-12-17T20:38:27.802Z,47.44
2022-12-17T20:40:29.554Z,47.77
2022-12-17T20:42:31.357Z,47.73
2022-12-17T20:44:33.130Z,47.92
2022-12-17T20:46:36.770Z,47.84
2022-12-17T20:48:40.857Z,47.96
2022-12-17T20:50:46.288Z,47.85
2022-12-17T20:52:47.956Z,47.99
2022-12-17T20:54:49.666Z,48.09
2022-12-17T20:56:51.237Z,47.62
2022-12-17T20:59:05.363Z,47.86
2022-12-17T21:01:13.907Z,47.57
2022-12-17T21:03:15.720Z,47.96
2022-12-17T21:05:18.156Z,47.47
2022-12-17T21:07:27.505Z,47.75
2022-12-17T21:09:29.148Z,47.39
2022-12-17T21:11:34.235Z,47.94
2022-12-17T21:13:37.188Z,47.60
2022-12-17T21:15:39.127Z,47.40
2022-12-17T21:17:40.878Z,47.79
2022-12-17T21:19:45.746Z,47.85
2022-12-17T21:21:47.530Z,47.87
2022-12-17T21:23:49.854Z,47.54
2022-12-17T21:26:08.836Z,47.33
2022-12-17T21:28:12.179Z,47.67
2022-12-17T21:30:14.048Z,47.97
2022-12-17T21:32:18.647Z,47.39
2022-12-17T21:34:23.130Z,47.79
2022-12-17T21:36:26.486Z,48.13
2022-12-17T21:38:29.194Z,48.21
2022-12-17T21:40:30.848Z,48.13
2022-12-17T21:42:51.298Z,47.75
2022-12-17T21:44:52.911Z,48.07
2022-12-17T21:46:54.716Z,47.96
2022-12-17T21:48:58.810Z,47.85
2022-12-17T21:51:03.403Z,47.65
2022-12-17T21:53:09.098Z,47.75
2022-12-17T21:55:10.668Z,47.66
2022-12-17T21:57:12.751Z,47.56
2022-12-17T21:59:15.542Z,47.96
2022-12-17T22:01:27.011Z,47.89
2022-12-17T22:03:28.646Z,47.81
2022-12-17T22:05:30.313Z,47.84
2022-12-17T22:07:39.443Z,47.97
2022-12-17T22:10:25.732Z,47.58
2022-12-17T22:12:30.175Z,47.58
2022-12-17T22:14:31.632Z,47.57
2022-12-17T22:16:42.145Z,47.84
2022-12-17T22:18:47.120Z,47.73
2022-12-17T22:20:59.860Z,47.91
2022-12-17T22:23:01.738Z,47.83
2022-12-17T22:25:08.225Z,47.56
2022-12-17T22:27:13.251Z,47.64
2022-12-17T22:29:40.571Z,47.79
2022-12-17T22:32:03.232Z,47.58
2022-12-17T22:35:02.077Z,47.33
2022-12-17T22:39:15.766Z,47.58
2022-12-17T22:42:29.000Z,47.40
2022-12-17T22:44:48.774Z,47.49
2022-12-17T22:44:51.616Z,47.72
2022-12-17T22:46:29.954Z,47.76
2022-12-17T22:48:40.602Z,47.55
2022-12-17T22:50:55.198Z,47.91
2022-12-17T22:53:08.262Z,47.94
2022-12-17T22:55:13.163Z,47.79
2022-12-17T22:57:35.180Z,47.73
2022-12-17T22:59:37.202Z,47.62
2022-12-17T23:01:39.163Z,47.78
2022-12-17T23:03:41.278Z,47.79
2022-12-17T23:05:43.317Z,47.80
2022-12-17T23:07:47.766Z,47.88
2022-12-17T23:09:49.508Z,47.44
2022-12-17T23:11:51.153Z,47.85
2022-12-17T23:13:54.337Z,47.70
2022-12-17T23:15:56.942Z,47.43
2022-12-17T23:18:07.819Z,47.69
2022-12-17T23:20:11.087Z,47.41
2022-12-17T23:22:21.786Z,47.46
2022-12-17T23:24:23.783Z,47.35
2022-12-17T23:26:31.487Z,47.58
2022-12-17T23:28:33.074Z,47.74
2022-12-17T23:30:36.684Z,47.58
2022-12-17T23:32:38.578Z,47.65
2022-12-17T23:34:40.238Z,47.59
2022-12-17T23:36:41.969Z,47.69
2022-12-17T23:38:45.138Z,47.76
2022-12-17T23:40:46.851Z,47.67
2022-12-17T23:42:48.808Z,47.71
2022-12-17T23:44:50.520Z,47.59
2022-12-17T23:46:52.501Z,47.58
2022-12-17T23:48:54.436Z,47.47
2022-12-17T23:50:57.111Z,47.50
2022-12-17T23:52:58.842Z,47.51
2022-12-17T23:55:00.481Z,47.57
2022-12-17T23:57:02.200Z,47.75
2022-12-17T23:59:04.289Z,47.74
